sensor_id;sensor_type;location;lat;lon;timestamp;P1;durP1;ratioP1;P2;durP2;ratioP2
43700;SDS011;58809;47.984;7.964;2022-12-11T00:01:44;24.35;;;16.15;;
43700;SDS011;58809;47.984;7.964;2022-12-11T00:04:45;22.98;;;15.38;;
43700;SDS011;58809;47.984;7.964;2022-12-11T00:07:47;24.65;;;16.25;;
43700;SDS011;58809;47.984;7.964;2022-12-11T00:10:49;24.63;;;16.15;;
43700;SDS011;58809;47.984;7.964;2022-12-11T00:13:50;25.23;;;14.98;;
43700;SDS011;58809;47.984;7.964;2022-12-11T00:16:52;23.38;;;15.45;;
43700;SDS011;58809;47.984;7.964;2022-12-11T00:19:54;21.55;;;14.70;;
43700;SDS011;58809;47.984;7.964;2022-12-11T00:22:55;22.65;;;13.90;;
43700;SDS011;58809;47.984;7.964;2022-12-11T00:25:57;19.75;;;13.18;;
43700;SDS011;58809;47.984;7.964;2022-12-11T00:28:58;18.25;;;12.38;;
43700;SDS011;58809;47.984;7.964;2022-12-11T00:32:00;18.35;;;12.15;;
43700;SDS011;58809;47.984;7.964;2022-12-11T00:35:02;18.33;;;11.82;;
43700;SDS011;58809;47.984;7.964;2022-12-11T00:38:03;20.52;;;11.50;;
43700;SDS011;58809;47.984;7.964;2022-12-11T00:41:05;19.23;;;12.38;;
43700;SDS011;58809;47.984;7.964;2022-12-11T00:44:07;21.30;;;12.70;;
43700;SDS011;58809;47.984;7.964;2022-12-11T00:47:08;20.08;;;13.00;;
43700;SDS011;58809;47.984;7.964;2022-12-11T00:50:10;19.52;;;12.93;;
43700;SDS011;58809;47.984;7.964;2022-12-11T00:53:12;16.50;;;11.88;;
43700;SDS011;58809;47.984;7.964;2022-12-11T00:56:15;17.65;;;12.30;;
43700;SDS011;58809;47.984;7.964;2022-12-11T00:59:19;17.20;;;11.48;;
43700;SDS011;58809;47.984;7.964;2022-12-11T01:02:20;18.20;;;12.30;;
43700;SDS011;58809;47.984;7.964;2022-12-11T01:05:22;17.77;;;11.00;;
43700;SDS011;58809;47.984;7.964;2022-12-11T01:08:23;17.67;;;12.75;;
43700;SDS011;58809;47.984;7.964;2022-12-11T01:11:25;17.65;;;11.75;;
43700;SDS011;58809;47.984;7.964;2022-12-11T01:14:26;20.42;;;11.55;;
43700;SDS011;58809;47.984;7.964;2022-12-11T01:17:28;16.55;;;11.07;;
43700;SDS011;58809;47.984;7.964;2022-12-11T01:20:30;15.07;;;10.68;;
43700;SDS011;58809;47.984;7.964;2022-12-11T01:23:31;17.58;;;11.43;;
43700;SDS011;58809;47.984;7.964;2022-12-11T01:26:33;17.80;;;12.07;;
43700;SDS011;58809;47.984;7.964;2022-12-11T01:29:35;16.17;;;10.73;;
43700;SDS011;58809;47.984;7.964;2022-12-11T01:32:36;14.75;;;10.73;;
43700;SDS011;58809;47.984;7.964;2022-12-11T01:35:38;16.25;;;10.48;;
43700;SDS011;58809;47.984;7.964;2022-12-11T01:38:40;18.25;;;11.05;;
43700;SDS011;58809;47.984;7.964;2022-12-11T01:41:42;14.95;;;10.65;;
43700;SDS011;58809;47.984;7.964;2022-12-11T01:47:45;16.85;;;11.00;;
43700;SDS011;58809;47.984;7.964;2022-12-11T01:50:49;16.35;;;11.00;;
43700;SDS011;58809;47.984;7.964;2022-12-11T01:53:58;14.48;;;10.50;;
43700;SDS011;58809;47.984;7.964;2022-12-11T01:57:03;20.77;;;10.95;;
43700;SDS011;58809;47.984;7.964;2022-12-11T02:00:08;16.48;;;11.23;;
43700;SDS011;58809;47.984;7.964;2022-12-11T02:03:13;18.23;;;12.50;;
43700;SDS011;58809;47.984;7.964;2022-12-11T02:06:35;17.38;;;11.85;;
43700;SDS011;58809;47.984;7.964;2022-12-11T02:09:41;17.05;;;11.70;;
43700;SDS011;58809;47.984;7.964;2022-12-11T02:16:17;17.85;;;12.18;;
43700;SDS011;58809;47.984;7.964;2022-12-11T02:20:00;17.33;;;11.07;;
43700;SDS011;58809;47.984;7.964;2022-12-11T02:26:21;16.77;;;11.25;;
43700;SDS011;58809;47.984;7.964;2022-12-11T02:29:36;15.23;;;10.85;;
43700;SDS011;58809;47.984;7.964;2022-12-11T02:32:47;16.75;;;10.88;;
43700;SDS011;58809;47.984;7.964;2022-12-11T02:35:57;18.77;;;12.57;;
43700;SDS011;58809;47.984;7.964;2022-12-11T02:39:00;20.57;;;12.20;;
43700;SDS011;58809;47.984;7.964;2022-12-11T02:42:03;15.85;;;10.95;;
43700;SDS011;58809;47.984;7.964;2022-12-11T02:45:07;16.67;;;12.07;;
43700;SDS011;58809;47.984;7.964;2022-12-11T02:48:10;17.88;;;12.38;;
43700;SDS011;58809;47.984;7.964;2022-12-11T02:51:14;18.05;;;11.10;;
43700;SDS011;58809;47.984;7.964;2022-12-11T02:54:19;17.10;;;12.25;;
43700;SDS011;58809;47.984;7.964;2022-12-11T02:57:30;17.80;;;11.75;;
43700;SDS011;58809;47.984;7.964;2022-12-11T03:00:38;16.27;;;11.23;;
43700;SDS011;58809;47.984;7.964;2022-12-11T03:03:40;16.92;;;11.05;;
43700;SDS011;58809;47.984;7.964;2022-12-11T03:06:43;17.08;;;11.32;;
43700;SDS011;58809;47.984;7.964;2022-12-11T03:09:48;16.23;;;10.88;;
43700;SDS011;58809;47.984;7.964;2022-12-11T03:12:51;17.23;;;10.93;;
43700;SDS011;58809;47.984;7.964;2022-12-11T03:16:06;16.15;;;11.10;;
43700;SDS011;58809;47.984;7.964;2022-12-11T03:22:38;14.88;;;11.07;;
43700;SDS011;58809;47.984;7.964;2022-12-11T03:25:46;13.65;;;10.48;;
43700;SDS011;58809;47.984;7.964;2022-12-11T03:29:02;17.13;;;11.57;;
43700;SDS011;58809;47.984;7.964;2022-12-11T03:32:08;17.02;;;11.35;;
43700;SDS011;58809;47.984;7.964;2022-12-11T03:35:18;15.38;;;10.68;;
43700;SDS011;58809;47.984;7.964;2022-12-11T03:38:27;14.95;;;11.18;;
43700;SDS011;58809;47.984;7.964;2022-12-11T03:41:35;17.90;;;11.25;;
43700;SDS011;58809;47.984;7.964;2022-12-11T03:44:38;16.60;;;10.43;;
43700;SDS011;58809;47.984;7.964;2022-12-11T03:47:44;20.85;;;11.75;;
43700;SDS011;58809;47.984;7.964;2022-12-11T03:50:47;17.02;;;11.70;;
43700;SDS011;58809;47.984;7.964;2022-12-11T03:53:49;18.88;;;11.55;;
43700;SDS011;58809;47.984;7.964;2022-12-11T03:56:54;18.75;;;12.18;;
43700;SDS011;58809;47.984;7.964;2022-12-11T03:59:58;16.67;;;10.88;;
43700;SDS011;58809;47.984;7.964;2022-12-11T04:03:00;16.30;;;10.93;;
43700;SDS011;58809;47.984;7.964;2022-12-11T04:06:14;14.75;;;10.93;;
43700;SDS011;58809;47.984;7.964;2022-12-11T04:09:16;14.52;;;9.90;;
43700;SDS011;58809;47.984;7.964;2022-12-11T04:12:17;18.70;;;11.48;;
43700;SDS011;58809;47.984;7.964;2022-12-11T04:15:19;17.27;;;11.35;;
43700;SDS011;58809;47.984;7.964;2022-12-11T04:18:20;17.77;;;10.75;;
43700;SDS011;58809;47.984;7.964;2022-12-11T04:21:41;16.40;;;10.70;;
43700;SDS011;58809;47.984;7.964;2022-12-11T04:25:01;17.35;;;10.70;;
43700;SDS011;58809;47.984;7.964;2022-12-11T04:28:04;15.40;;;10.25;;
43700;SDS011;58809;47.984;7.964;2022-12-11T04:31:09;22.45;;;12.35;;
43700;SDS011;58809;47.984;7.964;2022-12-11T04:34:12;18.52;;;11.80;;
43700;SDS011;58809;47.984;7.964;2022-12-11T04:37:14;18.20;;;11.40;;
43700;SDS011;58809;47.984;7.964;2022-12-11T04:40:16;16.48;;;11.07;;
43700;SDS011;58809;47.984;7.964;2022-12-11T04:43:19;16.42;;;11.32;;
43700;SDS011;58809;47.984;7.964;2022-12-11T04:46:21;16.65;;;11.40;;
43700;SDS011;58809;47.984;7.964;2022-12-11T04:49:24;14.98;;;10.15;;
43700;SDS011;58809;47.984;7.964;2022-12-11T04:52:26;17.10;;;10.85;;
43700;SDS011;58809;47.984;7.964;2022-12-11T04:55:28;16.80;;;10.95;;
43700;SDS011;58809;47.984;7.964;2022-12-11T04:58:29;16.08;;;10.93;;
43700;SDS011;58809;47.984;7.964;2022-12-11T05:01:31;16.05;;;10.38;;
43700;SDS011;58809;47.984;7.964;2022-12-11T05:04:33;15.73;;;10.88;;
43700;SDS011;58809;47.984;7.964;2022-12-11T05:07:35;16.33;;;10.60;;
43700;SDS011;58809;47.984;7.964;2022-12-11T05:10:38;16.05;;;10.45;;
43700;SDS011;58809;47.984;7.964;2022-12-11T05:13:39;15.27;;;9.70;;
43700;SDS011;58809;47.984;7.964;2022-12-11T05:16:42;18.13;;;10.50;;
43700;SDS011;58809;47.984;7.964;2022-12-11T05:19:43;15.15;;;9.68;;
43700;SDS011;58809;47.984;7.964;2022-12-11T05:22:48;14.68;;;9.50;;
43700;SDS011;58809;47.984;7.964;2022-12-11T05:25:53;18.40;;;11.75;;
43700;SDS011;58809;47.984;7.964;2022-12-11T05:28:59;15.85;;;10.55;;
43700;SDS011;58809;47.984;7.964;2022-12-11T05:32:01;13.15;;;9.20;;
43700;SDS011;58809;47.984;7.964;2022-12-11T05:35:03;15.68;;;10.25;;
43700;SDS011;58809;47.984;7.964;2022-12-11T05:38:05;15.18;;;10.10;;
43700;SDS011;58809;47.984;7.964;2022-12-11T05:41:06;15.95;;;10.23;;
43700;SDS011;58809;47.984;7.964;2022-12-11T05:44:10;17.90;;;10.75;;
43700;SDS011;58809;47.984;7.964;2022-12-11T05:47:13;17.45;;;10.68;;
43700;SDS011;58809;47.984;7.964;2022-12-11T05:50:17;16.55;;;10.82;;
43700;SDS011;58809;47.984;7.964;2022-12-11T05:53:18;17.77;;;10.93;;
43700;SDS011;58809;47.984;7.964;2022-12-11T05:56:22;15.07;;;10.25;;
43700;SDS011;58809;47.984;7.964;2022-12-11T05:59:25;17.00;;;10.20;;
43700;SDS011;58809;47.984;7.964;2022-12-11T06:02:26;15.50;;;10.52;;
43700;SDS011;58809;47.984;7.964;2022-12-11T06:05:28;16.40;;;10.27;;
43700;SDS011;58809;47.984;7.964;2022-12-11T06:08:30;14.77;;;9.43;;
43700;SDS011;58809;47.984;7.964;2022-12-11T06:11:32;17.13;;;9.80;;
43700;SDS011;58809;47.984;7.964;2022-12-11T06:14:34;19.67;;;11.45;;
43700;SDS011;58809;47.984;7.964;2022-12-11T06:17:36;16.50;;;10.63;;
43700;SDS011;58809;47.984;7.964;2022-12-11T06:20:37;17.27;;;10.73;;
43700;SDS011;58809;47.984;7.964;2022-12-11T06:23:39;14.85;;;10.32;;
43700;SDS011;58809;47.984;7.964;2022-12-11T06:26:41;15.88;;;10.10;;
43700;SDS011;58809;47.984;7.964;2022-12-11T06:29:43;17.30;;;10.63;;
43700;SDS011;58809;47.984;7.964;2022-12-11T06:32:45;14.95;;;10.07;;
43700;SDS011;58809;47.984;7.964;2022-12-11T06:35:47;20.00;;;12.00;;
43700;SDS011;58809;47.984;7.964;2022-12-11T06:38:49;17.25;;;11.30;;
43700;SDS011;58809;47.984;7.964;2022-12-11T06:41:50;19.27;;;11.55;;
43700;SDS011;58809;47.984;7.964;2022-12-11T06:44:52;17.58;;;10.60;;
43700;SDS011;58809;47.984;7.964;2022-12-11T06:47:53;19.30;;;11.13;;
43700;SDS011;58809;47.984;7.964;2022-12-11T06:50:55;20.25;;;12.05;;
43700;SDS011;58809;47.984;7.964;2022-12-11T06:53:58;23.80;;;14.05;;
43700;SDS011;58809;47.984;7.964;2022-12-11T06:56:59;19.13;;;11.57;;
43700;SDS011;58809;47.984;7.964;2022-12-11T07:00:01;17.52;;;11.00;;
43700;SDS011;58809;47.984;7.964;2022-12-11T07:03:02;20.25;;;11.80;;
43700;SDS011;58809;47.984;7.964;2022-12-11T07:06:04;27.63;;;15.50;;
43700;SDS011;58809;47.984;7.964;2022-12-11T07:09:06;23.35;;;14.50;;
43700;SDS011;58809;47.984;7.964;2022-12-11T07:12:08;18.98;;;12.98;;
43700;SDS011;58809;47.984;7.964;2022-12-11T07:15:09;20.35;;;13.52;;
43700;SDS011;58809;47.984;7.964;2022-12-11T07:18:11;17.52;;;12.02;;
43700;SDS011;58809;47.984;7.964;2022-12-11T07:21:13;21.90;;;12.80;;
43700;SDS011;58809;47.984;7.964;2022-12-11T07:24:15;21.23;;;13.57;;
43700;SDS011;58809;47.984;7.964;2022-12-11T07:27:17;23.08;;;12.98;;
43700;SDS011;58809;47.984;7.964;2022-12-11T07:30:18;19.13;;;14.95;;
43700;SDS011;58809;47.984;7.964;2022-12-11T07:33:20;20.33;;;16.10;;
43700;SDS011;58809;47.984;7.964;2022-12-11T07:36:21;23.38;;;20.95;;
43700;SDS011;58809;47.984;7.964;2022-12-11T07:39:24;24.20;;;19.45;;
43700;SDS011;58809;47.984;7.964;2022-12-11T07:42:27;21.70;;;13.95;;
43700;SDS011;58809;47.984;7.964;2022-12-11T07:45:28;19.48;;;13.98;;
43700;SDS011;58809;47.984;7.964;2022-12-11T07:48:30;19.75;;;12.77;;
43700;SDS011;58809;47.984;7.964;2022-12-11T07:51:33;16.17;;;10.95;;
43700;SDS011;58809;47.984;7.964;2022-12-11T07:54:36;16.65;;;11.55;;
43700;SDS011;58809;47.984;7.964;2022-12-11T07:57:38;22.55;;;15.93;;
43700;SDS011;58809;47.984;7.964;2022-12-11T08:00:40;22.60;;;15.85;;
43700;SDS011;58809;47.984;7.964;2022-12-11T08:03:41;21.08;;;12.65;;
43700;SDS011;58809;47.984;7.964;2022-12-11T08:06:43;20.55;;;13.35;;
43700;SDS011;58809;47.984;7.964;2022-12-11T08:09:45;25.10;;;16.05;;
43700;SDS011;58809;47.984;7.964;2022-12-11T08:12:46;30.38;;;19.38;;
43700;SDS011;58809;47.984;7.964;2022-12-11T08:15:48;25.45;;;15.82;;
43700;SDS011;58809;47.984;7.964;2022-12-11T08:18:50;27.13;;;16.13;;
43700;SDS011;58809;47.984;7.964;2022-12-11T08:21:51;24.52;;;16.20;;
43700;SDS011;58809;47.984;7.964;2022-12-11T08:24:53;28.02;;;18.00;;
43700;SDS011;58809;47.984;7.964;2022-12-11T08:27:55;25.83;;;17.17;;
43700;SDS011;58809;47.984;7.964;2022-12-11T08:30:56;23.80;;;15.07;;
43700;SDS011;58809;47.984;7.964;2022-12-11T08:33:58;24.10;;;15.48;;
43700;SDS011;58809;47.984;7.964;2022-12-11T08:37:00;26.27;;;16.35;;
43700;SDS011;58809;47.984;7.964;2022-12-11T08:40:02;31.50;;;18.25;;
43700;SDS011;58809;47.984;7.964;2022-12-11T08:43:04;24.08;;;16.60;;
43700;SDS011;58809;47.984;7.964;2022-12-11T08:46:07;23.92;;;15.48;;
43700;SDS011;58809;47.984;7.964;2022-12-11T08:49:09;24.23;;;16.03;;
43700;SDS011;58809;47.984;7.964;2022-12-11T08:52:11;20.70;;;14.25;;
43700;SDS011;58809;47.984;7.964;2022-12-11T08:55:12;24.73;;;14.90;;
43700;SDS011;58809;47.984;7.964;2022-12-11T08:58:14;24.17;;;15.25;;
43700;SDS011;58809;47.984;7.964;2022-12-11T09:01:19;26.25;;;16.40;;
43700;SDS011;58809;47.984;7.964;2022-12-11T09:04:23;25.23;;;15.25;;
43700;SDS011;58809;47.984;7.964;2022-12-11T09:07:24;29.50;;;17.70;;
43700;SDS011;58809;47.984;7.964;2022-12-11T09:10:26;28.42;;;17.30;;
43700;SDS011;58809;47.984;7.964;2022-12-11T09:13:28;28.65;;;16.10;;
43700;SDS011;58809;47.984;7.964;2022-12-11T09:16:29;33.00;;;19.20;;
43700;SDS011;58809;47.984;7.964;2022-12-11T09:19:32;39.67;;;24.45;;
43700;SDS011;58809;47.984;7.964;2022-12-11T09:22:33;37.58;;;23.38;;
43700;SDS011;58809;47.984;7.964;2022-12-11T09:25:38;36.67;;;22.60;;
43700;SDS011;58809;47.984;7.964;2022-12-11T09:28:40;40.65;;;22.92;;
43700;SDS011;58809;47.984;7.964;2022-12-11T09:31:47;48.88;;;26.40;;
43700;SDS011;58809;47.984;7.964;2022-12-11T09:34:50;40.60;;;23.52;;
43700;SDS011;58809;47.984;7.964;2022-12-11T09:37:53;37.72;;;22.75;;
43700;SDS011;58809;47.984;7.964;2022-12-11T09:40:55;34.38;;;21.48;;
43700;SDS011;58809;47.984;7.964;2022-12-11T09:44:19;38.30;;;23.13;;
43700;SDS011;58809;47.984;7.964;2022-12-11T09:50:35;23.55;;;16.70;;
43700;SDS011;58809;47.984;7.964;2022-12-11T09:53:37;24.95;;;15.68;;
43700;SDS011;58809;47.984;7.964;2022-12-11T10:03:21;26.40;;;16.45;;
43700;SDS011;58809;47.984;7.964;2022-12-11T10:06:34;23.98;;;17.33;;
43700;SDS011;58809;47.984;7.964;2022-12-11T10:09:46;29.77;;;17.83;;
43700;SDS011;58809;47.984;7.964;2022-12-11T10:19:46;22.20;;;16.02;;
43700;SDS011;58809;47.984;7.964;2022-12-11T10:22:49;23.75;;;15.10;;
43700;SDS011;58809;47.984;7.964;2022-12-11T10:25:53;19.63;;;13.52;;
43700;SDS011;58809;47.984;7.964;2022-12-11T10:29:04;20.40;;;13.10;;
43700;SDS011;58809;47.984;7.964;2022-12-11T10:32:23;17.10;;;11.73;;
43700;SDS011;58809;47.984;7.964;2022-12-11T10:38:54;19.10;;;11.65;;
43700;SDS011;58809;47.984;7.964;2022-12-11T10:41:56;20.08;;;11.48;;
43700;SDS011;58809;47.984;7.964;2022-12-11T10:44:59;21.27;;;13.18;;
43700;SDS011;58809;47.984;7.964;2022-12-11T10:48:06;20.20;;;12.73;;
43700;SDS011;58809;47.984;7.964;2022-12-11T10:51:11;21.00;;;12.75;;
43700;SDS011;58809;47.984;7.964;2022-12-11T10:54:29;21.13;;;13.88;;
43700;SDS011;58809;47.984;7.964;2022-12-11T10:57:34;20.48;;;13.27;;
43700;SDS011;58809;47.984;7.964;2022-12-11T11:00:38;20.65;;;13.77;;
43700;SDS011;58809;47.984;7.964;2022-12-11T11:07:29;22.83;;;14.48;;
43700;SDS011;58809;47.984;7.964;2022-12-11T11:10:31;24.83;;;14.20;;
43700;SDS011;58809;47.984;7.964;2022-12-11T11:13:33;20.48;;;13.30;;
43700;SDS011;58809;47.984;7.964;2022-12-11T11:16:35;19.63;;;13.57;;
43700;SDS011;58809;47.984;7.964;2022-12-11T11:19:39;25.17;;;16.05;;
43700;SDS011;58809;47.984;7.964;2022-12-11T11:22:42;23.90;;;14.57;;
43700;SDS011;58809;47.984;7.964;2022-12-11T11:26:05;23.63;;;14.55;;
43700;SDS011;58809;47.984;7.964;2022-12-11T11:29:12;22.30;;;14.57;;
43700;SDS011;58809;47.984;7.964;2022-12-11T11:32:32;20.60;;;14.45;;
43700;SDS011;58809;47.984;7.964;2022-12-11T11:35:38;19.45;;;13.65;;
43700;SDS011;58809;47.984;7.964;2022-12-11T11:39:09;19.88;;;13.43;;
43700;SDS011;58809;47.984;7.964;2022-12-11T11:42:29;18.35;;;12.95;;
43700;SDS011;58809;47.984;7.964;2022-12-11T11:45:43;20.73;;;14.00;;
43700;SDS011;58809;47.984;7.964;2022-12-11T11:51:59;23.40;;;14.18;;
43700;SDS011;58809;47.984;7.964;2022-12-11T11:58:42;86.70;;;61.42;;
43700;SDS011;58809;47.984;7.964;2022-12-11T12:01:50;22.00;;;12.52;;
43700;SDS011;58809;47.984;7.964;2022-12-11T12:04:55;18.55;;;13.00;;
43700;SDS011;58809;47.984;7.964;2022-12-11T12:15:15;21.50;;;13.35;;
43700;SDS011;58809;47.984;7.964;2022-12-11T12:18:36;18.92;;;12.82;;
43700;SDS011;58809;47.984;7.964;2022-12-11T12:21:50;20.50;;;14.43;;
43700;SDS011;58809;47.984;7.964;2022-12-11T12:25:05;22.73;;;16.17;;
43700;SDS011;58809;47.984;7.964;2022-12-11T12:41:13;39.47;;;22.15;;
43700;SDS011;58809;47.984;7.964;2022-12-11T12:44:21;32.47;;;19.65;;
43700;SDS011;58809;47.984;7.964;2022-12-11T12:50:50;36.30;;;21.63;;
43700;SDS011;58809;47.984;7.964;2022-12-11T12:53:59;36.95;;;21.30;;
43700;SDS011;58809;47.984;7.964;2022-12-11T12:57:10;34.47;;;20.77;;
43700;SDS011;58809;47.984;7.964;2022-12-11T13:00:12;40.40;;;22.92;;
43700;SDS011;58809;47.984;7.964;2022-12-11T13:03:27;36.28;;;21.42;;
43700;SDS011;58809;47.984;7.964;2022-12-11T13:09:37;35.35;;;20.15;;
43700;SDS011;58809;47.984;7.964;2022-12-11T13:12:40;31.65;;;20.50;;
43700;SDS011;58809;47.984;7.964;2022-12-11T13:15:46;35.72;;;22.63;;
43700;SDS011;58809;47.984;7.964;2022-12-11T13:18:48;33.00;;;18.75;;
43700;SDS011;58809;47.984;7.964;2022-12-11T13:21:56;36.25;;;22.77;;
43700;SDS011;58809;47.984;7.964;2022-12-11T13:25:15;35.60;;;20.30;;
43700;SDS011;58809;47.984;7.964;2022-12-11T13:34:38;33.97;;;21.33;;
43700;SDS011;58809;47.984;7.964;2022-12-11T13:37:42;36.92;;;22.67;;
43700;SDS011;58809;47.984;7.964;2022-12-11T13:40:51;33.30;;;20.65;;
43700;SDS011;58809;47.984;7.964;2022-12-11T13:43:54;29.98;;;20.38;;
43700;SDS011;58809;47.984;7.964;2022-12-11T13:46:58;29.88;;;20.58;;
43700;SDS011;58809;47.984;7.964;2022-12-11T13:53:34;33.17;;;21.25;;
43700;SDS011;58809;47.984;7.964;2022-12-11T13:56:36;35.67;;;20.63;;
43700;SDS011;58809;47.984;7.964;2022-12-11T13:59:40;32.78;;;18.58;;
43700;SDS011;58809;47.984;7.964;2022-12-11T14:02:43;31.10;;;20.98;;
43700;SDS011;58809;47.984;7.964;2022-12-11T14:05:45;31.52;;;21.13;;
43700;SDS011;58809;47.984;7.964;2022-12-11T14:08:48;31.73;;;20.52;;
43700;SDS011;58809;47.984;7.964;2022-12-11T14:11:51;37.88;;;21.45;;
43700;SDS011;58809;47.984;7.964;2022-12-11T14:14:57;37.00;;;22.50;;
43700;SDS011;58809;47.984;7.964;2022-12-11T14:18:02;33.33;;;21.17;;
43700;SDS011;58809;47.984;7.964;2022-12-11T14:21:05;36.47;;;21.50;;
43700;SDS011;58809;47.984;7.964;2022-12-11T14:24:11;35.40;;;22.52;;
43700;SDS011;58809;47.984;7.964;2022-12-11T14:27:15;33.05;;;21.35;;
43700;SDS011;58809;47.984;7.964;2022-12-11T14:30:28;36.20;;;22.10;;
43700;SDS011;58809;47.984;7.964;2022-12-11T14:33:37;31.80;;;21.02;;
43700;SDS011;58809;47.984;7.964;2022-12-11T14:36:43;33.58;;;21.52;;
43700;SDS011;58809;47.984;7.964;2022-12-11T14:39:49;35.60;;;23.53;;
43700;SDS011;58809;47.984;7.964;2022-12-11T14:42:58;32.05;;;20.88;;
43700;SDS011;58809;47.984;7.964;2022-12-11T14:46:08;38.00;;;23.55;;
43700;SDS011;58809;47.984;7.964;2022-12-11T14:49:20;35.85;;;22.58;;
43700;SDS011;58809;47.984;7.964;2022-12-11T14:52:31;32.70;;;20.30;;
43700;SDS011;58809;47.984;7.964;2022-12-11T14:55:37;36.33;;;21.55;;
43700;SDS011;58809;47.984;7.964;2022-12-11T14:58:42;31.85;;;21.60;;
43700;SDS011;58809;47.984;7.964;2022-12-11T15:01:56;35.90;;;22.27;;
43700;SDS011;58809;47.984;7.964;2022-12-11T15:08:19;36.10;;;23.58;;
43700;SDS011;58809;47.984;7.964;2022-12-11T15:11:29;33.67;;;22.42;;
43700;SDS011;58809;47.984;7.964;2022-12-11T15:14:32;37.05;;;23.05;;
43700;SDS011;58809;47.984;7.964;2022-12-11T15:17:34;37.20;;;22.80;;
43700;SDS011;58809;47.984;7.964;2022-12-11T15:20:37;36.25;;;22.92;;
43700;SDS011;58809;47.984;7.964;2022-12-11T15:26:46;43.35;;;25.45;;
43700;SDS011;58809;47.984;7.964;2022-12-11T15:29:48;38.53;;;24.95;;
43700;SDS011;58809;47.984;7.964;2022-12-11T15:39:40;39.97;;;23.35;;
43700;SDS011;58809;47.984;7.964;2022-12-11T15:42:42;37.80;;;23.10;;
43700;SDS011;58809;47.984;7.964;2022-12-11T15:45:44;40.45;;;24.05;;
43700;SDS011;58809;47.984;7.964;2022-12-11T15:48:46;42.10;;;26.40;;
43700;SDS011;58809;47.984;7.964;2022-12-11T15:51:48;44.05;;;23.98;;
43700;SDS011;58809;47.984;7.964;2022-12-11T15:54:50;42.08;;;25.80;;
43700;SDS011;58809;47.984;7.964;2022-12-11T15:57:56;43.33;;;25.27;;
43700;SDS011;58809;47.984;7.964;2022-12-11T16:00:59;38.67;;;25.95;;
43700;SDS011;58809;47.984;7.964;2022-12-11T16:04:01;42.10;;;28.02;;
43700;SDS011;58809;47.984;7.964;2022-12-11T16:10:13;43.85;;;25.77;;
43700;SDS011;58809;47.984;7.964;2022-12-11T16:13:17;44.60;;;24.10;;
43700;SDS011;58809;47.984;7.964;2022-12-11T16:16:19;41.05;;;25.42;;
43700;SDS011;58809;47.984;7.964;2022-12-11T16:22:25;43.67;;;23.65;;
43700;SDS011;58809;47.984;7.964;2022-12-11T16:25:26;39.10;;;23.88;;
43700;SDS011;58809;47.984;7.964;2022-12-11T16:28:28;39.88;;;23.23;;
43700;SDS011;58809;47.984;7.964;2022-12-11T16:31:30;35.38;;;21.08;;
43700;SDS011;58809;47.984;7.964;2022-12-11T16:34:32;42.85;;;29.45;;
43700;SDS011;58809;47.984;7.964;2022-12-11T16:37:33;35.38;;;26.77;;
43700;SDS011;58809;47.984;7.964;2022-12-11T16:40:35;35.65;;;23.35;;
43700;SDS011;58809;47.984;7.964;2022-12-11T16:43:37;38.88;;;24.35;;
43700;SDS011;58809;47.984;7.964;2022-12-11T16:46:39;59.72;;;37.38;;
43700;SDS011;58809;47.984;7.964;2022-12-11T16:49:41;56.28;;;36.78;;
43700;SDS011;58809;47.984;7.964;2022-12-11T16:52:44;43.08;;;27.05;;
43700;SDS011;58809;47.984;7.964;2022-12-11T16:55:46;43.03;;;25.10;;
43700;SDS011;58809;47.984;7.964;2022-12-11T16:58:47;39.65;;;23.00;;
43700;SDS011;58809;47.984;7.964;2022-12-11T17:01:49;39.65;;;23.58;;
43700;SDS011;58809;47.984;7.964;2022-12-11T17:04:51;32.08;;;19.58;;
43700;SDS011;58809;47.984;7.964;2022-12-11T17:07:54;33.95;;;20.38;;
43700;SDS011;58809;47.984;7.964;2022-12-11T17:10:56;37.17;;;23.13;;
43700;SDS011;58809;47.984;7.964;2022-12-11T17:13:58;37.03;;;21.77;;
43700;SDS011;58809;47.984;7.964;2022-12-11T17:17:00;35.47;;;21.77;;
43700;SDS011;58809;47.984;7.964;2022-12-11T17:20:02;43.65;;;24.67;;
43700;SDS011;58809;47.984;7.964;2022-12-11T17:23:04;51.38;;;32.30;;
43700;SDS011;58809;47.984;7.964;2022-12-11T17:26:06;49.53;;;29.15;;
43700;SDS011;58809;47.984;7.964;2022-12-11T17:29:11;52.88;;;32.67;;
43700;SDS011;58809;47.984;7.964;2022-12-11T17:32:13;55.70;;;31.50;;
43700;SDS011;58809;47.984;7.964;2022-12-11T17:35:16;48.17;;;26.85;;
43700;SDS011;58809;47.984;7.964;2022-12-11T17:38:18;54.58;;;32.28;;
43700;SDS011;58809;47.984;7.964;2022-12-11T17:41:19;55.30;;;33.40;;
43700;SDS011;58809;47.984;7.964;2022-12-11T17:44:22;51.47;;;31.88;;
43700;SDS011;58809;47.984;7.964;2022-12-11T17:47:23;48.03;;;28.23;;
43700;SDS011;58809;47.984;7.964;2022-12-11T17:50:25;47.20;;;25.95;;
43700;SDS011;58809;47.984;7.964;2022-12-11T17:53:26;46.08;;;24.50;;
43700;SDS011;58809;47.984;7.964;2022-12-11T17:56:28;45.55;;;26.27;;
43700;SDS011;58809;47.984;7.964;2022-12-11T17:59:30;41.13;;;27.08;;
43700;SDS011;58809;47.984;7.964;2022-12-11T18:07:19;34.15;;;19.90;;
43700;SDS011;58809;47.984;7.964;2022-12-11T18:10:20;37.05;;;21.27;;
43700;SDS011;58809;47.984;7.964;2022-12-11T18:13:22;34.28;;;20.70;;
43700;SDS011;58809;47.984;7.964;2022-12-11T18:16:32;35.85;;;21.83;;
43700;SDS011;58809;47.984;7.964;2022-12-11T18:19:36;39.05;;;22.25;;
43700;SDS011;58809;47.984;7.964;2022-12-11T18:22:44;42.88;;;23.17;;
43700;SDS011;58809;47.984;7.964;2022-12-11T18:25:46;46.75;;;28.25;;
43700;SDS011;58809;47.984;7.964;2022-12-11T18:28:48;48.35;;;25.27;;
43700;SDS011;58809;47.984;7.964;2022-12-11T18:31:50;39.47;;;22.67;;
43700;SDS011;58809;47.984;7.964;2022-12-11T18:34:52;27.88;;;17.90;;
43700;SDS011;58809;47.984;7.964;2022-12-11T18:37:54;36.70;;;21.10;;
43700;SDS011;58809;47.984;7.964;2022-12-11T18:40:56;41.22;;;20.52;;
43700;SDS011;58809;47.984;7.964;2022-12-11T18:44:00;38.83;;;22.55;;
43700;SDS011;58809;47.984;7.964;2022-12-11T18:47:09;35.83;;;19.83;;
43700;SDS011;58809;47.984;7.964;2022-12-11T18:50:11;37.65;;;21.23;;
43700;SDS011;58809;47.984;7.964;2022-12-11T18:53:14;39.85;;;22.05;;
43700;SDS011;58809;47.984;7.964;2022-12-11T18:56:17;34.78;;;20.75;;
43700;SDS011;58809;47.984;7.964;2022-12-11T18:59:20;56.60;;;28.88;;
43700;SDS011;58809;47.984;7.964;2022-12-11T19:02:23;34.08;;;19.35;;
43700;SDS011;58809;47.984;7.964;2022-12-11T19:05:24;28.60;;;16.83;;
43700;SDS011;58809;47.984;7.964;2022-12-11T19:08:26;33.60;;;19.58;;
43700;SDS011;58809;47.984;7.964;2022-12-11T19:11:28;39.90;;;23.55;;
43700;SDS011;58809;47.984;7.964;2022-12-11T19:14:32;42.65;;;21.65;;
43700;SDS011;58809;47.984;7.964;2022-12-11T19:17:33;34.65;;;18.98;;
43700;SDS011;58809;47.984;7.964;2022-12-11T19:20:36;31.48;;;19.95;;
43700;SDS011;58809;47.984;7.964;2022-12-11T19:23:58;34.77;;;20.20;;
43700;SDS011;58809;47.984;7.964;2022-12-11T19:27:00;31.85;;;18.02;;
43700;SDS011;58809;47.984;7.964;2022-12-11T19:30:02;27.73;;;16.15;;
43700;SDS011;58809;47.984;7.964;2022-12-11T19:33:04;21.58;;;13.10;;
43700;SDS011;58809;47.984;7.964;2022-12-11T19:36:08;25.00;;;14.65;;
43700;SDS011;58809;47.984;7.964;2022-12-11T19:39:11;32.25;;;17.40;;
43700;SDS011;58809;47.984;7.964;2022-12-11T19:42:14;28.92;;;16.98;;